Time;durP1;ratioP1;P1;durP2;ratioP2;P2;SDS_P1;SDS_P2;PMS_P1;PMS_P2;Temp;Humidity;BMP_temperature;BMP_pressure;BME280_temperature;BME280_humidity;BME280_pressure;Samples;Min_cycle;Max_cycle;Signal;HPM_P1;HPM_P2
2023/04/08 00:00:40;;;;;;;1.80;1.40;;;18.90;43.70;;;;;;5012444;28;21009;-58
2023/04/08 00:03:06;;;;;;;1.40;1.30;;;18.80;43.60;;;;;;5015903;28;20923;-59
2023/04/08 00:05:33;;;;;;;1.40;1.30;;;18.80;43.60;;;;;;5013053;28;20674;-58
2023/04/08 00:07:58;;;;;;;1.50;1.40;;;18.80;43.60;;;;;;5006215;28;20254;-59
2023/04/08 00:10:25;;;;;;;1.60;1.50;;;18.80;43.60;;;;;;5012076;28;20435;-61
2023/04/08 00:12:50;;;;;;;1.60;1.50;;;18.80;43.60;;;;;;5012900;28;20796;-61
2023/04/08 00:15:16;;;;;;;1.40;1.30;;;18.80;43.60;;;;;;5007920;28;20446;-58
2023/04/08 00:17:42;;;;;;;1.30;1.20;;;18.80;43.60;;;;;;5011604;28;20226;-61
2023/04/08 00:20:08;;;;;;;1.53;1.40;;;18.80;43.60;;;;;;5014365;28;20246;-59
2023/04/08 00:22:34;;;;;;;2.27;1.50;;;18.80;43.60;;;;;;5013934;28;20241;-60
2023/04/08 00:25:00;;;;;;;1.50;1.40;;;18.80;44.40;;;;;;5016235;28;21074;-63
2023/04/08 00:27:26;;;;;;;1.47;1.37;;;18.80;44.40;;;;;;5013109;28;20438;-61
2023/04/08 00:29:51;;;;;;;1.70;1.60;;;18.80;43.60;;;;;;5009851;28;20769;-63
2023/04/08 00:32:17;;;;;;;1.40;1.30;;;18.80;43.60;;;;;;5013143;28;20246;-59
2023/04/08 00:34:43;;;;;;;1.47;1.37;;;18.80;43.60;;;;;;5010112;28;20558;-63
2023/04/08 00:37:08;;;;;;;1.33;1.23;;;18.80;43.60;;;;;;5008265;28;20678;-59
2023/04/08 00:39:36;;;;;;;1.80;1.37;;;18.80;43.60;;;;;;5010082;28;20254;-61
2023/04/08 00:42:02;;;;;;;1.47;1.30;;;18.80;43.60;;;;;;5010122;28;20329;-59
2023/04/08 00:44:27;;;;;;;1.50;1.40;;;18.80;43.60;;;;;;5009821;28;20443;-63
2023/04/08 00:46:53;;;;;;;1.43;1.33;;;18.80;43.60;;;;;;5012460;28;20269;-64
2023/04/08 00:49:19;;;;;;;1.63;1.53;;;18.80;43.60;;;;;;5012040;28;20246;-58
2023/04/08 00:51:44;;;;;;;1.20;1.10;;;18.80;43.60;;;;;;5012539;28;20240;-61
2023/04/08 00:54:11;;;;;;;1.40;1.30;;;18.80;43.60;;;;;;5013609;28;20252;-63
2023/04/08 00:56:37;;;;;;;1.40;1.30;;;18.80;43.60;;;;;;5013760;28;20443;-67
2023/04/08 00:59:03;;;;;;;1.40;1.30;;;18.80;43.60;;;;;;5010091;28;20214;-65
2023/04/08 01:01:39;;;;;;;1.40;1.30;;;18.80;43.60;;;;;;5016500;28;20431;-63
2023/04/08 01:04:24;;;;;;;1.40;1.30;;;18.80;43.60;;;;;;5009800;28;21042;-60
2023/04/08 01:07:17;;;;;;;1.30;1.20;;;18.80;43.60;;;;;;5010323;28;20442;-63
2023/04/08 01:09:53;;;;;;;1.30;1.20;;;18.80;43.60;;;;;;5020905;28;20553;-60
2023/04/08 01:12:28;;;;;;;1.30;1.20;;;18.80;43.60;;;;;;5013783;28;20455;-59
2023/04/08 01:15:06;;;;;;;1.50;1.40;;;18.80;43.60;;;;;;5015536;28;21043;-63
2023/04/08 01:17:33;;;;;;;2.00;1.47;;;18.80;43.60;;;;;;5010992;28;20505;-60
2023/04/08 01:20:01;;;;;;;1.40;1.30;;;18.80;43.60;;;;;;5010309;28;20535;-62
2023/04/08 01:22:54;;;;;;;1.60;1.50;;;18.80;43.60;;;;;;5017706;28;20514;-60
2023/04/08 01:25:28;;;;;;;1.50;1.40;;;18.80;43.60;;;;;;5013754;28;20431;-61
2023/04/08 01:27:55;;;;;;;1.40;1.30;;;18.80;43.60;;;;;;5012087;28;20434;-63
2023/04/08 01:30:23;;;;;;;1.50;1.40;;;18.80;43.70;;;;;;5016922;28;20462;-62
2023/04/08 01:32:51;;;;;;;1.40;1.30;;;18.80;43.60;;;;;;5020188;28;20562;-61
2023/04/08 01:35:17;;;;;;;1.40;1.30;;;18.80;43.60;;;;;;5012759;28;20617;-64
2023/04/08 01:37:45;;;;;;;1.40;1.30;;;18.80;43.60;;;;;;5017998;28;20479;-62
2023/04/08 01:40:12;;;;;;;1.20;1.10;;;18.80;43.60;;;;;;5013480;28;20526;-61
2023/04/08 01:42:38;;;;;;;1.33;1.23;;;18.80;43.60;;;;;;5014827;28;20468;-61
2023/04/08 01:45:06;;;;;;;3.13;1.40;;;18.80;43.60;;;;;;5011650;28;20470;-60
2023/04/08 01:47:33;;;;;;;1.50;1.40;;;18.80;43.60;;;;;;5014187;28;20526;-59
2023/04/08 01:49:59;;;;;;;1.40;1.30;;;18.80;43.60;;;;;;5012113;28;20424;-61
2023/04/08 01:52:27;;;;;;;1.93;1.37;;;18.80;43.60;;;;;;5018666;28;20871;-60
2023/04/08 01:54:53;;;;;;;1.60;1.50;;;18.80;43.60;;;;;;5012410;28;20518;-62
2023/04/08 01:57:23;;;;;;;1.40;1.30;;;18.80;43.60;;;;;;5015080;28;20448;-61
2023/04/08 01:59:51;;;;;;;1.60;1.50;;;18.80;43.60;;;;;;5015930;28;20299;-62
2023/04/08 02:02:20;;;;;;;1.50;1.40;;;18.80;43.60;;;;;;5018150;28;20469;-59
2023/04/08 02:04:45;;;;;;;1.60;1.50;;;18.80;43.60;;;;;;5013630;28;20417;-61
2023/04/08 02:07:11;;;;;;;1.40;1.30;;;18.80;43.60;;;;;;5013864;28;22773;-65
2023/04/08 02:09:37;;;;;;;1.30;1.20;;;18.80;43.60;;;;;;5016886;28;20244;-60
2023/04/08 02:12:03;;;;;;;1.30;1.20;;;18.80;43.60;;;;;;5019229;28;20210;-60
2023/04/08 02:14:28;;;;;;;1.40;1.30;;;18.80;43.60;;;;;;5014035;28;21738;-60
2023/04/08 02:17:53;;;;;;;1.60;1.50;;;18.80;43.60;;;;;;5015502;28;20254;-63
2023/04/08 02:20:29;;;;;;;1.60;1.50;;;18.80;43.60;;;;;;4976015;28;20371;-60
2023/04/08 02:22:58;;;;;;;2.00;1.50;;;18.80;43.70;;;;;;4974792;28;21456;-66
2023/04/08 02:25:24;;;;;;;1.60;1.50;;;18.80;43.60;;;;;;4997051;28;20453;-60
2023/04/08 02:27:51;;;;;;;1.67;1.57;;;18.80;43.60;;;;;;5014384;28;20450;-64
2023/04/08 02:30:18;;;;;;;1.47;1.37;;;18.80;43.60;;;;;;5010509;28;20427;-59
2023/04/08 02:32:45;;;;;;;1.67;1.57;;;18.80;43.60;;;;;;5008981;28;20460;-60
2023/04/08 02:35:13;;;;;;;1.60;1.50;;;18.80;43.60;;;;;;5012216;28;20963;-59
2023/04/08 02:37:38;;;;;;;1.40;1.30;;;18.80;43.60;;;;;;5012600;28;20442;-62
2023/04/08 02:40:31;;;;;;;1.50;1.40;;;18.80;43.60;;;;;;5014691;28;22000;-62
2023/04/08 02:42:58;;;;;;;1.30;1.20;;;18.80;43.60;;;;;;5012134;28;20258;-59
2023/04/08 02:45:31;;;;;;;2.03;1.47;;;18.80;43.60;;;;;;5013912;28;20468;-59
2023/04/08 02:48:00;;;;;;;1.80;1.53;;;18.80;43.60;;;;;;5013379;28;20500;-59
2023/04/08 02:50:25;;;;;;;1.53;1.43;;;18.80;43.60;;;;;;5017161;28;20443;-62
2023/04/08 02:52:51;;;;;;;1.30;1.20;;;18.80;43.60;;;;;;5014349;28;20426;-66
2023/04/08 02:55:16;;;;;;;1.50;1.40;;;18.80;43.60;;;;;;5010549;28;20879;-59
2023/04/08 02:57:42;;;;;;;1.50;1.40;;;18.80;43.60;;;;;;5015348;28;20726;-59
2023/04/08 03:00:08;;;;;;;1.70;1.60;;;18.80;43.60;;;;;;5015941;28;20226;-62
2023/04/08 03:02:35;;;;;;;1.40;1.30;;;18.80;43.60;;;;;;5017880;28;20231;-62
2023/04/08 03:05:00;;;;;;;1.40;1.30;;;18.80;43.70;;;;;;5015677;28;20463;-60
2023/04/08 03:07:26;;;;;;;1.30;1.20;;;18.80;43.60;;;;;;5014270;28;20471;-61
2023/04/08 03:09:53;;;;;;;1.40;1.30;;;18.80;43.60;;;;;;5015112;28;20322;-61
2023/04/08 03:12:20;;;;;;;1.60;1.50;;;18.80;43.60;;;;;;5013570;28;20281;-60
2023/04/08 03:14:45;;;;;;;1.60;1.50;;;18.80;43.60;;;;;;5014897;28;20494;-60
2023/04/08 03:17:10;;;;;;;1.60;1.50;;;18.80;43.60;;;;;;5011715;28;20805;-60
2023/04/08 03:19:36;;;;;;;1.60;1.50;;;18.80;43.60;;;;;;5014531;28;20936;-59
2023/04/08 03:22:01;;;;;;;1.60;1.50;;;18.80;43.60;;;;;;5008464;28;20297;-60
2023/04/08 03:24:27;;;;;;;1.60;1.50;;;18.80;43.60;;;;;;5014281;28;20218;-59
2023/04/08 03:26:52;;;;;;;1.70;1.60;;;18.80;43.60;;;;;;5014920;28;20223;-59
2023/04/08 03:29:18;;;;;;;1.40;1.30;;;18.80;43.60;;;;;;5013925;28;20749;-59
2023/04/08 03:31:43;;;;;;;1.53;1.40;;;18.70;43.60;;;;;;5014630;28;20226;-58
2023/04/08 03:34:09;;;;;;;1.40;1.30;;;18.70;43.60;;;;;;5012071;28;20309;-62
2023/04/08 03:36:34;;;;;;;1.70;1.60;;;18.70;43.60;;;;;;5020616;28;20219;-59
2023/04/08 03:39:02;;;;;;;1.30;1.20;;;18.80;43.60;;;;;;5016959;28;20690;-68
2023/04/08 03:41:28;;;;;;;1.57;1.40;;;18.80;43.60;;;;;;5015167;28;20719;-61
2023/04/08 03:43:53;;;;;;;1.50;1.40;;;18.80;43.60;;;;;;5010079;28;20497;-61
2023/04/08 03:46:19;;;;;;;1.53;1.33;;;18.70;43.60;;;;;;5029407;28;20223;-61
2023/04/08 03:48:44;;;;;;;1.30;1.20;;;18.70;43.60;;;;;;5012201;28;20322;-62
2023/04/08 03:51:10;;;;;;;1.50;1.40;;;18.70;43.60;;;;;;5014629;28;20235;-62
2023/04/08 03:53:35;;;;;;;1.10;1.10;;;18.80;43.60;;;;;;5012613;28;20276;-59
2023/04/08 03:56:02;;;;;;;1.50;1.40;;;18.70;43.60;;;;;;5010879;28;20276;-61
2023/04/08 03:58:28;;;;;;;1.40;1.30;;;18.80;43.60;;;;;;5014819;28;20233;-59
2023/04/08 04:00:53;;;;;;;1.33;1.23;;;18.80;43.60;;;;;;5014918;28;20418;-63
2023/04/08 04:03:19;;;;;;;1.40;1.30;;;18.80;43.60;;;;;;5013295;28;20325;-61
2023/04/08 04:05:44;;;;;;;1.37;1.27;;;18.80;43.60;;;;;;5015734;28;20226;-63
2023/04/08 04:08:10;;;;;;;1.97;1.40;;;18.80;43.60;;;;;;5015129;28;20238;-60
2023/04/08 04:10:35;;;;;;;1.30;1.20;;;18.80;43.60;;;;;;5013863;28;20223;-59
2023/04/08 04:13:01;;;;;;;1.50;1.40;;;18.80;43.60;;;;;;5011614;28;20215;-67
2023/04/08 04:15:26;;;;;;;1.40;1.30;;;18.70;43.60;;;;;;5014655;28;20211;-62
2023/04/08 04:17:52;;;;;;;1.40;1.30;;;18.70;43.60;;;;;;5015053;28;20219;-64
2023/04/08 04:20:18;;;;;;;1.50;1.40;;;18.80;43.60;;;;;;5009049;28;20271;-65
2023/04/08 04:22:43;;;;;;;1.30;1.20;;;18.80;43.60;;;;;;5004067;28;20237;-62
2023/04/08 04:25:09;;;;;;;1.50;1.40;;;18.70;43.60;;;;;;5012486;28;20223;-62
2023/04/08 04:27:35;;;;;;;1.30;1.20;;;18.70;43.60;;;;;;5018582;28;20227;-66
2023/04/08 04:30:01;;;;;;;1.63;1.53;;;18.70;43.60;;;;;;5018797;28;20273;-60
2023/04/08 04:32:27;;;;;;;1.50;1.40;;;18.70;43.60;;;;;;5014435;28;20904;-62
2023/04/08 04:34:52;;;;;;;1.40;1.30;;;18.70;43.60;;;;;;5018057;28;20435;-64
2023/04/08 04:37:18;;;;;;;1.70;1.60;;;18.70;43.60;;;;;;5016712;28;20226;-60
2023/04/08 04:39:44;;;;;;;1.40;1.30;;;18.70;43.60;;;;;;5018585;28;20220;-60
2023/04/08 04:42:09;;;;;;;1.57;1.47;;;18.70;43.60;;;;;;5020172;28;20218;-68
2023/04/08 04:44:35;;;;;;;1.63;1.53;;;18.70;43.60;;;;;;5016235;28;20306;-59
2023/04/08 04:47:01;;;;;;;1.47;1.37;;;18.70;43.60;;;;;;5014674;28;20229;-62
2023/04/08 04:49:26;;;;;;;1.37;1.27;;;18.80;43.60;;;;;;5018012;28;20223;-60
2023/04/08 04:51:52;;;;;;;1.47;1.37;;;18.80;43.60;;;;;;5010470;28;20599;-62
2023/04/08 04:54:17;;;;;;;1.50;1.40;;;18.80;43.60;;;;;;5014308;28;20673;-60
2023/04/08 04:56:43;;;;;;;1.63;1.53;;;18.80;43.60;;;;;;5020568;28;20244;-60
2023/04/08 04:59:08;;;;;;;1.60;1.50;;;18.80;43.60;;;;;;5013088;28;20231;-59
2023/04/08 05:01:34;;;;;;;1.30;1.20;;;18.80;43.60;;;;;;5014448;28;20220;-59
2023/04/08 05:03:59;;;;;;;3.20;1.60;;;18.80;43.60;;;;;;5020688;28;20245;-63
2023/04/08 05:06:26;;;;;;;1.40;1.30;;;18.80;43.60;;;;;;5016560;28;20215;-61
2023/04/08 05:08:52;;;;;;;1.40;1.30;;;18.80;43.60;;;;;;5016465;28;20310;-62
2023/04/08 05:11:17;;;;;;;1.47;1.37;;;18.80;43.70;;;;;;5022438;28;20405;-61
2023/04/08 05:13:43;;;;;;;1.60;1.50;;;18.80;43.60;;;;;;5017196;28;20427;-62
2023/04/08 05:16:09;;;;;;;1.40;1.30;;;18.80;43.60;;;;;;5018296;28;20223;-64
2023/04/08 05:18:35;;;;;;;1.50;1.40;;;18.80;43.70;;;;;;5017224;28;20452;-60
2023/04/08 05:21:01;;;;;;;1.50;1.40;;;18.80;43.60;;;;;;5018794;28;20246;-59
2023/04/08 05:23:26;;;;;;;1.60;1.50;;;18.80;43.60;;;;;;5020042;28;20266;-59
2023/04/08 05:25:52;;;;;;;1.70;1.60;;;18.80;43.60;;;;;;5018929;28;20659;-58
2023/04/08 05:28:17;;;;;;;1.43;1.33;;;18.80;43.60;;;;;;5020139;28;20233;-59
2023/04/08 05:30:48;;;;;;;1.60;1.50;;;18.80;43.60;;;;;;5019511;28;20292;-62
2023/04/08 05:33:13;;;;;;;1.50;1.40;;;18.80;43.60;;;;;;5019280;28;20242;-59
2023/04/08 05:35:39;;;;;;;1.50;1.40;;;18.80;43.60;;;;;;5022812;28;20430;-60
2023/04/08 05:38:05;;;;;;;1.50;1.40;;;18.80;43.60;;;;;;5016129;28;20246;-60
2023/04/08 05:40:31;;;;;;;1.50;1.40;;;18.80;43.60;;;;;;5022920;28;20288;-62
2023/04/08 05:42:56;;;;;;;1.43;1.33;;;18.80;43.60;;;;;;5023291;28;20554;-61
2023/04/08 05:45:22;;;;;;;1.50;1.40;;;18.80;43.60;;;;;;5018305;28;20654;-63
2023/04/08 05:47:47;;;;;;;1.57;1.47;;;18.80;43.60;;;;;;5016278;28;20222;-59
2023/04/08 05:50:13;;;;;;;1.67;1.43;;;18.80;43.70;;;;;;5017194;28;20273;-60
2023/04/08 05:52:45;;;;;;;1.90;1.80;;;18.80;43.70;;;;;;5023295;28;20253;-59
2023/04/08 05:55:13;;;;;;;1.70;1.60;;;18.80;43.60;;;;;;5013343;28;20266;-59
2023/04/08 05:57:39;;;;;;;1.80;1.70;;;18.80;43.60;;;;;;5018406;28;20430;-59
2023/04/08 06:00:07;;;;;;;1.47;1.37;;;18.80;43.70;;;;;;5024463;28;20463;-58
2023/04/08 06:02:33;;;;;;;1.90;1.80;;;18.80;43.60;;;;;;5013656;28;20448;-59
2023/04/08 06:04:58;;;;;;;1.40;1.30;;;18.90;43.70;;;;;;5017946;28;21182;-59
2023/04/08 06:07:24;;;;;;;1.90;1.80;;;18.80;43.60;;;;;;5017942;28;20455;-58
2023/04/08 06:09:49;;;;;;;1.50;1.40;;;18.80;43.60;;;;;;5015062;28;20301;-60
2023/04/08 06:12:15;;;;;;;1.77;1.67;;;18.90;43.70;;;;;;5018230;28;20227;-59
2023/04/08 06:14:40;;;;;;;1.70;1.60;;;18.90;43.70;;;;;;5014637;28;20235;-59
2023/04/08 06:17:06;;;;;;;1.77;1.67;;;18.90;43.70;;;;;;5013098;28;20229;-61
2023/04/08 06:19:31;;;;;;;1.73;1.63;;;18.90;43.70;;;;;;5013202;28;20300;-64
2023/04/08 06:21:57;;;;;;;1.70;1.60;;;18.90;43.70;;;;;;5007937;28;20218;-59
2023/04/08 06:24:28;;;;;;;2.33;1.70;;;18.80;43.60;;;;;;5000710;28;21844;-60
2023/04/08 06:26:54;;;;;;;1.53;1.43;;;18.90;43.70;;;;;;5007048;28;20445;-64
2023/04/08 06:29:23;;;;;;;1.90;1.80;;;18.90;43.70;;;;;;5009469;28;20485;-59
2023/04/08 06:31:49;;;;;;;1.90;1.80;;;18.90;43.80;;;;;;5011845;28;20423;-63
2023/04/08 06:34:15;;;;;;;1.83;1.73;;;18.80;43.60;;;;;;5014258;28;20434;-63
2023/04/08 06:36:41;;;;;;;1.70;1.60;;;18.90;43.80;;;;;;5007272;28;20491;-60
2023/04/08 06:39:07;;;;;;;1.80;1.70;;;18.80;43.60;;;;;;5011916;28;20246;-60
2023/04/08 06:41:32;;;;;;;1.73;1.63;;;18.90;43.70;;;;;;5015662;28;20669;-61
2023/04/08 06:43:58;;;;;;;1.50;1.40;;;18.90;43.70;;;;;;5017442;28;20238;-60
2023/04/08 06:46:24;;;;;;;2.20;1.80;;;18.90;43.70;;;;;;5013277;28;20230;-63
2023/04/08 06:48:49;;;;;;;2.00;1.90;;;18.90;43.80;;;;;;5010134;28;20709;-64
2023/04/08 06:51:15;;;;;;;1.80;1.70;;;18.80;43.60;;;;;;5017429;28;20439;-61
2023/04/08 06:53:41;;;;;;;1.90;1.80;;;18.90;43.70;;;;;;5011238;28;20314;-61
2023/04/08 06:56:06;;;;;;;1.93;1.83;;;18.80;43.60;;;;;;5016263;28;20687;-62
2023/04/08 06:58:32;;;;;;;1.90;1.80;;;18.90;43.70;;;;;;5018522;28;20221;-61
2023/04/08 07:00:58;;;;;;;1.60;1.50;;;18.90;43.70;;;;;;5012845;28;20218;-62
2023/04/08 07:03:24;;;;;;;1.80;1.70;;;18.90;43.70;;;;;;5013258;28;20245;-60
2023/04/08 07:05:49;;;;;;;1.87;1.77;;;18.90;43.70;;;;;;5009702;28;20426;-63
2023/04/08 07:08:15;;;;;;;1.80;1.70;;;18.90;43.70;;;;;;5015801;28;20226;-63
2023/04/08 07:10:40;;;;;;;2.13;2.03;;;18.90;43.70;;;;;;5014731;28;20221;-63
2023/04/08 07:13:06;;;;;;;1.73;1.63;;;18.90;43.70;;;;;;5012835;28;20230;-62
2023/04/08 07:15:32;;;;;;;2.03;1.93;;;18.90;43.70;;;;;;5011174;28;20237;-64
2023/04/08 07:17:58;;;;;;;1.90;1.80;;;18.90;43.80;;;;;;5004223;28;20234;-63
2023/04/08 07:20:24;;;;;;;2.03;1.93;;;18.90;43.70;;;;;;5009615;28;20260;-63
2023/04/08 07:22:50;;;;;;;1.90;1.80;;;18.90;43.80;;;;;;5005713;28;20508;-62
2023/04/08 07:25:16;;;;;;;1.80;1.70;;;18.90;43.80;;;;;;5007366;28;20521;-59
2023/04/08 07:27:42;;;;;;;1.87;1.77;;;18.90;43.70;;;;;;5009151;28;22257;-64
2023/04/08 07:30:07;;;;;;;2.17;1.97;;;18.90;43.70;;;;;;5008524;28;20226;-62
2023/04/08 07:32:33;;;;;;;2.07;1.97;;;18.90;43.70;;;;;;5012709;28;20222;-63
2023/04/08 07:34:59;;;;;;;1.83;1.73;;;18.90;43.70;;;;;;5009750;28;20229;-62
2023/04/08 07:37:26;;;;;;;1.97;1.87;;;18.90;43.70;;;;;;5009994;28;20233;-61
2023/04/08 07:39:51;;;;;;;2.00;1.90;;;18.90;43.70;;;;;;5007140;28;20431;-60
2023/04/08 07:42:17;;;;;;;1.93;1.83;;;18.90;43.70;;;;;;5011309;28;20525;-60
2023/04/08 07:44:44;;;;;;;1.97;1.87;;;18.90;43.70;;;;;;5010889;28;20226;-63
2023/04/08 07:47:10;;;;;;;2.30;2.20;;;18.90;43.70;;;;;;5014524;28;20222;-63
2023/04/08 07:49:36;;;;;;;2.60;2.40;;;18.90;43.70;;;;;;5012625;28;20453;-66
2023/04/08 07:52:01;;;;;;;2.03;1.93;;;18.90;43.70;;;;;;5011236;28;21549;-66
2023/04/08 07:54:27;;;;;;;2.50;2.30;;;18.90;43.70;;;;;;5017363;28;20230;-60
2023/04/08 07:56:52;;;;;;;2.90;2.40;;;18.90;43.70;;;;;;5011838;28;20646;-60
2023/04/08 07:59:18;;;;;;;2.13;2.03;;;18.90;44.50;;;;;;5014796;28;20219;-63
2023/04/08 08:01:44;;;;;;;2.50;2.30;;;18.90;43.70;;;;;;5006120;28;20257;-62
2023/04/08 08:04:09;;;;;;;2.63;2.23;;;18.90;43.70;;;;;;5012117;28;20230;-61
2023/04/08 08:06:35;;;;;;;2.60;2.50;;;18.90;43.70;;;;;;5011274;28;20264;-60
2023/04/08 08:09:00;;;;;;;2.07;1.97;;;18.90;43.70;;;;;;5010996;28;20237;-60
2023/04/08 08:11:26;;;;;;;2.63;2.43;;;18.90;43.70;;;;;;5010719;28;20225;-62
2023/04/08 08:13:52;;;;;;;2.43;2.27;;;18.90;43.70;;;;;;5005456;28;20227;-60
2023/04/08 08:16:18;;;;;;;2.53;2.33;;;18.90;43.70;;;;;;5004480;28;20960;-59
2023/04/08 08:18:44;;;;;;;2.90;2.70;;;18.90;43.70;;;;;;5000234;28;20234;-60
2023/04/08 08:21:09;;;;;;;2.70;2.50;;;18.90;43.70;;;;;;5004235;28;21206;-62
2023/04/08 08:23:36;;;;;;;3.17;2.97;;;18.90;43.70;;;;;;5001032;28;20242;-63
2023/04/08 08:26:10;;;;;;;2.00;1.90;;;18.90;43.70;;;;;;5002673;28;20225;-65
2023/04/08 08:28:36;;;;;;;2.43;2.33;;;18.90;43.70;;;;;;4998469;28;21060;-64
2023/04/08 08:31:02;;;;;;;2.63;2.43;;;18.90;43.70;;;;;;5002279;28;20443;-59
2023/04/08 08:33:28;;;;;;;2.50;2.40;;;18.90;43.70;;;;;;4998829;28;20492;-66
2023/04/08 08:35:54;;;;;;;3.10;2.40;;;18.90;43.70;;;;;;5002737;28;20361;-64
2023/04/08 08:38:20;;;;;;;2.90;2.70;;;18.90;43.70;;;;;;5001783;28;20218;-61
2023/04/08 08:40:45;;;;;;;2.77;2.57;;;18.90;43.70;;;;;;4996816;28;20506;-60
2023/04/08 08:43:11;;;;;;;2.37;2.13;;;18.90;43.70;;;;;;5001764;28;20281;-60
2023/04/08 08:45:40;;;;;;;3.10;2.90;;;18.90;43.70;;;;;;5000753;28;20265;-60
2023/04/08 08:48:07;;;;;;;3.20;2.90;;;18.90;43.80;;;;;;5004013;28;20702;-64
2023/04/08 08:50:34;;;;;;;2.20;2.10;;;18.90;43.70;;;;;;5000660;28;20873;-63
2023/04/08 08:53:00;;;;;;;2.93;2.73;;;18.90;43.70;;;;;;5006749;28;20435;-60
2023/04/08 08:55:31;;;;;;;3.20;3.00;;;18.90;43.70;;;;;;5016201;28;20434;-62
2023/04/08 08:57:56;;;;;;;2.90;2.80;;;18.90;43.70;;;;;;5007295;28;20520;-65
2023/04/08 09:00:33;;;;;;;2.67;2.47;;;18.90;43.80;;;;;;5011202;28;20541;-62
2023/04/08 09:03:18;;;;;;;3.33;3.13;;;18.90;43.70;;;;;;5008981;28;20250;-67
2023/04/08 09:05:53;;;;;;;2.57;2.40;;;18.90;43.70;;;;;;5015680;28;20426;-62
2023/04/08 09:08:22;;;;;;;3.10;2.90;;;18.90;43.70;;;;;;5010830;28;20451;-65
2023/04/08 09:10:48;;;;;;;3.00;2.80;;;18.90;43.70;;;;;;5006140;28;20445;-66
2023/04/08 09:13:13;;;;;;;2.80;2.20;;;18.90;43.70;;;;;;5011538;28;20790;-62
2023/04/08 09:15:59;;;;;;;3.13;2.93;;;18.90;43.70;;;;;;5015193;28;20226;-61
2023/04/08 09:18:25;;;;;;;3.00;2.80;;;18.90;43.80;;;;;;5005937;28;20207;-66
2023/04/08 09:20:53;;;;;;;2.90;2.70;;;18.90;43.70;;;;;;5016886;28;20824;-64
2023/04/08 09:23:19;;;;;;;3.30;3.00;;;18.90;43.70;;;;;;5012429;28;20242;-65
2023/04/08 09:25:45;;;;;;;3.07;2.87;;;18.90;43.70;;;;;;5015183;28;20477;-65
2023/04/08 09:28:22;;;;;;;2.60;2.50;;;18.90;43.70;;;;;;5013168;28;21171;-63
2023/04/08 09:30:47;;;;;;;2.77;2.67;;;18.90;43.70;;;;;;5018773;28;20230;-61
2023/04/08 09:33:13;;;;;;;2.80;2.60;;;18.90;43.70;;;;;;5014805;28;20506;-61
2023/04/08 09:35:39;;;;;;;3.07;2.87;;;18.90;43.70;;;;;;5015001;28;20223;-61
2023/04/08 09:38:04;;;;;;;3.07;2.77;;;18.90;43.70;;;;;;5016071;28;20215;-68
2023/04/08 09:40:36;;;;;;;8.70;3.27;;;18.90;43.70;;;;;;5014569;28;20223;-62
2023/04/08 09:43:05;;;;;;;3.30;3.10;;;18.90;43.70;;;;;;5015135;28;20316;-62
2023/04/08 09:45:35;;;;;;;2.97;2.77;;;18.90;43.70;;;;;;5016023;28;20430;-62
2023/04/08 09:48:12;;;;;;;2.60;2.50;;;18.90;43.70;;;;;;5015481;28;20473;-63
2023/04/08 09:50:46;;;;;;;2.50;2.40;;;18.90;43.70;;;;;;5010274;28;20449;-68
2023/04/08 09:53:25;;;;;;;3.13;2.90;;;18.90;43.70;;;;;;5011417;28;20611;-66
2023/04/08 09:55:55;;;;;;;3.03;2.83;;;18.90;43.70;;;;;;5016382;28;20842;-62
2023/04/08 09:58:26;;;;;;;3.30;2.87;;;18.90;43.70;;;;;;5010721;28;20478;-62
2023/04/08 10:00:54;;;;;;;3.03;2.83;;;18.90;43.70;;;;;;5014702;28;21747;-62
2023/04/08 10:03:27;;;;;;;2.57;2.37;;;18.90;43.70;;;;;;5016330;28;20445;-64
2023/04/08 10:05:55;;;;;;;2.43;2.23;;;18.90;43.70;;;;;;5014196;28;20434;-64
2023/04/08 10:08:22;;;;;;;2.60;2.50;;;18.90;43.70;;;;;;5014537;28;20837;-61
2023/04/08 10:10:47;;;;;;;2.67;2.57;;;18.90;43.70;;;;;;5011302;28;21011;-68
2023/04/08 10:13:14;;;;;;;2.63;2.50;;;18.90;43.70;;;;;;5014142;28;20448;-61
2023/04/08 10:15:42;;;;;;;2.17;2.07;;;18.90;43.70;;;;;;5009458;28;20367;-66
2023/04/08 10:18:10;;;;;;;2.93;2.77;;;19.00;43.80;;;;;;5013705;28;20476;-62
2023/04/08 10:20:36;;;;;;;2.50;2.40;;;18.90;43.70;;;;;;5016493;28;20453;-62
2023/04/08 10:23:09;;;;;;;2.33;2.23;;;18.90;43.70;;;;;;5011669;28;20962;-62
2023/04/08 10:25:46;;;;;;;2.50;2.30;;;18.90;43.70;;;;;;5010801;28;20680;-62
2023/04/08 10:28:17;;;;;;;2.70;2.50;;;18.90;43.70;;;;;;5011736;28;20493;-63
2023/04/08 10:30:44;;;;;;;2.77;2.57;;;19.00;43.80;;;;;;5013916;28;20426;-64
2023/04/08 10:33:15;;;;;;;2.27;2.17;;;18.90;43.70;;;;;;5012781;28;20567;-62
2023/04/08 10:35:45;;;;;;;2.60;2.50;;;18.90;43.70;;;;;;5015374;28;20431;-61
2023/04/08 10:38:12;;;;;;;2.30;2.20;;;18.90;43.70;;;;;;5012242;28;20463;-62
2023/04/08 10:40:40;;;;;;;2.37;2.27;;;18.90;43.70;;;;;;5018937;28;20423;-62
2023/04/08 10:43:06;;;;;;;2.50;2.40;;;18.90;43.70;;;;;;5010696;28;20604;-62
2023/04/08 10:45:32;;;;;;;2.80;2.60;;;18.90;43.70;;;;;;5007845;28;20509;-68
2023/04/08 10:48:15;;;;;;;2.90;2.70;;;18.90;43.70;;;;;;5003548;28;21003;-64
2023/04/08 10:50:40;;;;;;;2.73;2.60;;;18.90;43.70;;;;;;5003871;28;20971;-61
2023/04/08 10:53:07;;;;;;;2.83;2.63;;;19.00;43.80;;;;;;5010000;28;20520;-65
2023/04/08 10:55:33;;;;;;;2.70;2.50;;;18.90;43.70;;;;;;5005312;28;20262;-65
2023/04/08 10:58:10;;;;;;;2.40;2.30;;;18.90;43.70;;;;;;5011984;28;20431;-68
2023/04/08 11:00:37;;;;;;;2.70;2.57;;;19.00;43.80;;;;;;5006361;28;21063;-64
2023/04/08 11:03:03;;;;;;;2.17;2.07;;;18.90;43.70;;;;;;5005903;28;20450;-61
2023/04/08 11:05:30;;;;;;;2.33;2.23;;;18.90;43.70;;;;;;5009238;28;20468;-66
2023/04/08 11:07:56;;;;;;;4.50;2.27;;;18.90;44.50;;;;;;5011091;28;20514;-63
2023/04/08 11:10:22;;;;;;;2.17;2.07;;;18.90;43.70;;;;;;5004914;28;20441;-69
2023/04/08 11:12:48;;;;;;;2.67;2.47;;;19.00;43.80;;;;;;5010466;28;20442;-65
2023/04/08 11:15:14;;;;;;;2.53;2.43;;;18.90;43.70;;;;;;5006714;28;20226;-66
2023/04/08 11:17:41;;;;;;;3.10;2.90;;;18.90;43.70;;;;;;5010509;28;20438;-63
2023/04/08 11:20:08;;;;;;;2.37;2.27;;;19.00;43.80;;;;;;5010265;28;20995;-67
2023/04/08 11:22:34;;;;;;;2.53;2.33;;;18.90;43.70;;;;;;5003205;28;21178;-67
2023/04/08 11:25:00;;;;;;;2.33;2.23;;;19.00;43.80;;;;;;5004677;28;20424;-62
2023/04/08 11:27:26;;;;;;;2.93;2.80;;;18.90;43.70;;;;;;5005303;28;20466;-62
2023/04/08 11:29:55;;;;;;;2.80;2.60;;;19.00;43.80;;;;;;5014277;28;20502;-63
2023/04/08 11:32:22;;;;;;;2.73;2.57;;;19.00;43.80;;;;;;5006051;28;20337;-60
2023/04/08 11:34:48;;;;;;;3.33;2.60;;;18.90;43.70;;;;;;5005202;28;21728;-65
2023/04/08 11:37:13;;;;;;;2.37;2.27;;;19.00;43.80;;;;;;5009543;28;20531;-61
2023/04/08 11:39:42;;;;;;;2.97;2.77;;;19.00;43.80;;;;;;5010526;28;20537;-60
2023/04/08 11:42:08;;;;;;;2.83;2.63;;;19.00;43.80;;;;;;5009105;28;20230;-63
2023/04/08 11:44:34;;;;;;;2.70;2.57;;;19.00;43.80;;;;;;5010304;28;20462;-65
2023/04/08 11:47:01;;;;;;;2.67;2.47;;;19.00;43.80;;;;;;5007003;28;20232;-62
2023/04/08 11:49:27;;;;;;;3.00;2.80;;;19.00;43.80;;;;;;5004474;28;20229;-66
2023/04/08 11:51:56;;;;;;;3.30;3.10;;;19.00;43.80;;;;;;5009170;28;20458;-64
2023/04/08 11:54:29;;;;;;;2.97;2.77;;;19.00;43.80;;;;;;5007410;28;20430;-60
2023/04/08 11:56:57;;;;;;;2.60;2.50;;;19.00;43.80;;;;;;5011070;28;20634;-61
2023/04/08 11:59:23;;;;;;;2.60;2.50;;;19.00;43.90;;;;;;5010377;28;20426;-63
2023/04/08 12:01:48;;;;;;;2.30;2.20;;;19.00;43.80;;;;;;5012236;28;20430;-60
2023/04/08 12:04:14;;;;;;;12.90;4.10;;;19.00;43.80;;;;;;5007628;28;21011;-68
2023/04/08 12:06:42;;;;;;;7.93;2.67;;;19.00;43.80;;;;;;5010385;28;22047;-74
2023/04/08 12:09:08;;;;;;;3.80;3.20;;;19.00;43.80;;;;;;5007838;28;20230;-65
2023/04/08 12:11:33;;;;;;;5.10;3.70;;;19.10;44.00;;;;;;5005471;28;20435;-68
2023/04/08 12:13:59;;;;;;;8.47;4.83;;;19.10;43.90;;;;;;5009473;28;20416;-66
2023/04/08 12:16:24;;;;;;;12.23;5.17;;;19.10;43.70;;;;;;5001950;28;20329;-64
2023/04/08 12:18:50;;;;;;;33.57;5.87;;;19.20;43.60;;;;;;5008025;28;20321;-64
2023/04/08 12:21:16;;;;;;;20.73;5.00;;;19.20;43.30;;;;;;5005117;28;20223;-65
2023/04/08 12:23:41;;;;;;;12.37;4.10;;;19.30;43.30;;;;;;5002342;28;20242;-65
2023/04/08 12:26:07;;;;;;;21.77;4.20;;;19.40;43.30;;;;;;5001925;28;20226;-72
2023/04/08 12:28:33;;;;;;;11.10;3.93;;;19.40;44.10;;;;;;5010345;28;20931;-71
2023/04/08 12:30:59;;;;;;;6.30;3.33;;;19.40;43.20;;;;;;5006976;28;20246;-67
2023/04/08 12:33:25;;;;;;;7.07;3.33;;;19.50;43.30;;;;;;5007937;28;20561;-62
2023/04/08 12:35:51;;;;;;;6.73;3.03;;;19.50;43.30;;;;;;5006260;28;20707;-67
2023/04/08 12:38:16;;;;;;;3.17;2.70;;;19.50;43.30;;;;;;5008938;28;20237;-72
2023/04/08 12:40:42;;;;;;;3.40;2.83;;;19.60;43.50;;;;;;5002826;28;20531;-69
2023/04/08 12:43:07;;;;;;;3.20;2.90;;;19.60;43.60;;;;;;5002486;28;20239;-66
2023/04/08 12:45:33;;;;;;;4.40;3.53;;;19.60;43.50;;;;;;5002919;28;20285;-68